KPSF/PSF METAR and TAF weather

Enter ICAO airport designator
Station Type Date Time Source
KPSF METAR 2020/06/05 12:54 UTC NOAA

KPSF 051254Z AUTO 21004KT 10SM CLR 21/17 A2988 RMK AO2 SLP092 T02110172


Station Type Date Time Source
KPSF Decoded METAR 2020/06/05 12:54 UTC NOAA

PITTSFIELD MUNICIPAL AIRPORT , MA, United States (KPSF) 42-26N 073-17W 355M
Jun 05, 2020 - 08:54 AM EDT / 2020.06.05 1254 UTC
Wind: from the SSW (210 degrees) at 5 MPH (4 KT):0
Visibility: 10 mile(s):0
Sky conditions: clear
Temperature: 70.0 F (21.1 C)
Dew Point: 63.0 F (17.2 C)
Relative Humidity: 78%
Pressure (altimeter): 29.88 in. Hg (1011 hPa)
ob: KPSF 051254Z AUTO 21004KT 10SM CLR 21/17 A2988 RMK AO2 SLP092 T02110172
cycle: 13

Station Type Date Time Source
KPSF TAF 2020/06/05 12:33 UTC NOAA

TAF KPSF 051131Z 0512/0612 22006KT P6SM VCSH BKN050
FM060300 20006KT 6SM BR SCT007 BKN010

Example: see airport list